createdAt,value
2022-10-28T00:06:49.845Z,62.52
2022-10-28T00:16:54.957Z,62.60
2022-10-28T00:26:59.957Z,62.69
2022-10-28T00:37:05.611Z,63.11
2022-10-28T00:47:11.017Z,62.86
2022-10-28T00:57:16.173Z,62.95
2022-10-28T01:07:21.741Z,63.13
2022-10-28T01:17:27.077Z,63.30
2022-10-28T01:28:52.023Z,63.25
2022-10-28T01:38:56.752Z,63.35
2022-10-28T01:49:02.043Z,63.34
2022-10-28T01:59:07.905Z,63.36
2022-10-28T02:09:13.212Z,63.52
2022-10-28T02:19:18.800Z,63.44
2022-10-28T02:29:23.956Z,63.47
2022-10-28T02:39:29.830Z,63.46
2022-10-28T02:49:35.359Z,63.56
2022-10-28T02:59:40.930Z,63.53
2022-10-28T03:09:46.242Z,63.50
2022-10-28T03:19:51.502Z,63.70
2022-10-28T03:29:56.690Z,63.72
2022-10-28T03:40:02.263Z,63.64
2022-10-28T03:50:07.773Z,63.86
2022-10-28T04:00:12.917Z,63.72
2022-10-28T04:10:18.362Z,63.89
2022-10-28T04:20:23.434Z,63.78
2022-10-28T04:30:28.718Z,64.05
2022-10-28T04:40:33.876Z,64.29
2022-10-28T04:50:39.165Z,64.22
2022-10-28T05:00:44.803Z,64.43
2022-10-28T05:10:50.285Z,64.38
2022-10-28T05:20:55.737Z,64.53
2022-10-28T05:31:01.379Z,64.32
2022-10-28T05:41:06.941Z,64.16
2022-10-28T05:51:12.276Z,64.29
2022-10-28T06:01:17.720Z,64.24
2022-10-28T06:11:21.463Z,64.37
2022-10-28T06:21:26.851Z,64.50
2022-10-28T06:32:52.162Z,64.36
2022-10-28T06:42:56.507Z,64.23
2022-10-28T06:53:03.657Z,64.32
2022-10-28T07:03:08.877Z,64.31
2022-10-28T07:13:14.275Z,64.28
2022-10-28T07:23:19.161Z,64.46
2022-10-28T07:33:24.029Z,64.26
2022-10-28T07:43:29.277Z,64.60
2022-10-28T07:53:34.919Z,64.95
2022-10-28T08:03:40.446Z,64.66
2022-10-28T08:13:46.071Z,64.40
2022-10-28T08:23:52.012Z,64.04
2022-10-28T08:33:57.477Z,63.12
2022-10-28T08:44:02.784Z,63.10
2022-10-28T08:54:08.333Z,63.56
2022-10-28T09:04:13.624Z,63.81
2022-10-28T09:14:19.098Z,63.02
2022-10-28T09:24:24.415Z,63.10
2022-10-28T09:34:29.233Z,62.98
2022-10-28T09:44:34.776Z,60.79
2022-10-28T09:54:40.485Z,62.98
2022-10-28T10:04:45.576Z,62.81
2022-10-28T10:14:51.186Z,63.24
2022-10-28T10:24:56.222Z,63.23
2022-10-28T10:35:01.289Z,62.96
2022-10-28T10:45:06.568Z,62.66
2022-10-28T10:55:11.971Z,63.41
2022-10-28T11:05:20.512Z,62.90
2022-10-28T11:15:28.356Z,62.60
2022-10-28T11:25:34.098Z,63.06
2022-10-28T11:35:39.349Z,62.23
2022-10-28T11:45:48.573Z,62.88
2022-10-28T11:55:55.295Z,62.85
2022-10-28T12:06:00.471Z,62.21
2022-10-28T12:16:06.041Z,63.21
2022-10-28T12:26:11.354Z,63.19
2022-10-28T12:36:16.449Z,62.62
2022-10-28T12:46:21.749Z,62.53
2022-10-28T12:56:27.163Z,62.91
2022-10-28T13:06:32.840Z,63.25
2022-10-28T13:16:38.191Z,62.81
2022-10-28T13:26:43.337Z,62.49
2022-10-28T13:36:49.119Z,63.21
2022-10-28T13:46:55.597Z,62.52
2022-10-28T13:57:00.997Z,63.41
2022-10-28T14:07:06.129Z,62.90
2022-10-28T14:17:11.345Z,62.55
2022-10-28T14:27:16.550Z,63.01
2022-10-28T14:37:25.799Z,62.87
2022-10-28T14:47:32.341Z,62.46
2022-10-28T14:57:37.764Z,62.88
2022-10-28T15:07:42.959Z,63.21
2022-10-28T15:17:48.540Z,63.33
2022-10-28T15:27:54.265Z,62.84
2022-10-28T15:37:59.880Z,62.29
2022-10-28T15:48:05.148Z,62.91
2022-10-28T15:58:12.638Z,63.32
2022-10-28T16:09:40.853Z,63.07
2022-10-28T16:19:45.429Z,62.95
2022-10-28T16:29:50.750Z,63.36
2022-10-28T16:39:56.025Z,63.04
2022-10-28T16:50:01.289Z,63.08
2022-10-28T17:00:06.677Z,62.71
2022-10-28T17:10:12.062Z,62.73
2022-10-28T17:20:17.232Z,63.07
2022-10-28T17:30:22.554Z,64.49
2022-10-28T17:40:27.540Z,65.82
2022-10-28T17:50:33.198Z,65.28
2022-10-28T18:00:38.205Z,66.45
2022-10-28T18:10:43.172Z,66.58
2022-10-28T18:20:48.394Z,66.57
2022-10-28T18:30:53.799Z,67.14
2022-10-28T18:40:58.784Z,66.73
2022-10-28T18:51:03.848Z,66.54
2022-10-28T19:01:09.181Z,67.20
2022-10-28T19:11:14.466Z,67.70
2022-10-28T19:21:19.747Z,67.50
2022-10-28T19:31:25.151Z,67.34
2022-10-28T19:42:50.222Z,67.49
2022-10-28T19:52:55.107Z,67.14
2022-10-28T20:03:00.139Z,67.27
2022-10-28T20:13:05.720Z,68.10
2022-10-28T20:23:11.239Z,68.57
2022-10-28T20:33:16.761Z,68.94
2022-10-28T20:44:41.481Z,68.60
2022-10-28T20:54:45.629Z,67.82
2022-10-28T21:04:51.262Z,68.48
2022-10-28T21:14:56.427Z,68.13
2022-10-28T21:26:21.454Z,68.19
2022-10-28T21:36:25.830Z,68.10
2022-10-28T21:46:31.157Z,68.03
2022-10-28T21:56:36.373Z,68.12
2022-10-28T22:06:41.625Z,68.40
2022-10-28T22:16:47.465Z,68.52
2022-10-28T22:26:53.188Z,68.28
2022-10-28T22:36:58.580Z,68.45
2022-10-28T22:47:04.276Z,68.55
2022-10-28T22:57:09.250Z,68.42
2022-10-28T23:08:33.889Z,68.85
2022-10-28T23:18:38.526Z,68.80
2022-10-28T23:28:43.675Z,68.85
2022-10-28T23:38:49.006Z,68.83
2022-10-28T23:48:54.269Z,69.34
2022-10-28T23:58:59.482Z,68.75
